Time;durP1;ratioP1;P1;durP2;ratioP2;P2;SDS_P1;SDS_P2;PMS_P1;PMS_P2;Temp;Humidity;BMP_temperature;BMP_pressure;BME280_temperature;BME280_humidity;BME280_pressure;Samples;Min_cycle;Max_cycle;Signal;HPM_P1;HPM_P2
2023/12/04 00:02:17;;;;;;;0.95;0.73;;;25.60;28.60;;;;;;5070390;28;20119;-67
2023/12/04 00:04:42;;;;;;;1.05;0.80;;;25.60;28.60;;;;;;5070055;28;20045;-65
2023/12/04 00:07:08;;;;;;;1.73;0.90;;;25.70;28.70;;;;;;5070087;28;20133;-65
2023/12/04 00:09:34;;;;;;;0.98;0.75;;;25.60;28.60;;;;;;5070137;28;20037;-66
2023/12/04 00:12:00;;;;;;;1.33;0.80;;;25.60;28.60;;;;;;5070103;28;20052;-67
2023/12/04 00:14:25;;;;;;;1.27;0.82;;;25.60;28.70;;;;;;5070079;28;20048;-67
2023/12/04 00:16:51;;;;;;;1.52;0.75;;;25.60;28.60;;;;;;5070067;28;20044;-67
2023/12/04 00:19:16;;;;;;;1.00;0.80;;;25.70;28.60;;;;;;5071221;28;20393;-67
2023/12/04 00:21:42;;;;;;;1.10;0.70;;;25.70;28.60;;;;;;5071281;28;20419;-64
2023/12/04 00:24:08;;;;;;;1.00;0.77;;;25.70;28.60;;;;;;5070978;28;20137;-67
2023/12/04 00:26:33;;;;;;;1.10;0.80;;;25.70;28.70;;;;;;5069788;28;20557;-65
2023/12/04 00:28:59;;;;;;;1.33;0.85;;;25.70;28.70;;;;;;5070261;28;20037;-67
2023/12/04 00:31:24;;;;;;;1.13;0.75;;;25.70;28.60;;;;;;5070266;28;20044;-67
2023/12/04 00:33:50;;;;;;;1.00;0.77;;;25.70;28.60;;;;;;5073578;28;20121;-67
2023/12/04 00:36:16;;;;;;;1.17;0.88;;;25.80;28.70;;;;;;5073313;28;20084;-67
2023/12/04 00:38:41;;;;;;;1.25;0.90;;;25.80;28.70;;;;;;5073459;28;20044;-67
2023/12/04 00:41:07;;;;;;;1.10;0.88;;;25.80;28.70;;;;;;5074593;28;20120;-67
2023/12/04 00:43:33;;;;;;;1.10;0.80;;;25.80;28.70;;;;;;5074628;28;20036;-66
2023/12/04 00:45:58;;;;;;;1.27;0.60;;;25.70;28.60;;;;;;5073231;28;20079;-65
2023/12/04 00:48:24;;;;;;;0.90;0.70;;;25.80;28.70;;;;;;5073267;28;20040;-67
2023/12/04 00:50:51;;;;;;;0.93;0.70;;;25.80;28.70;;;;;;5073468;28;20102;-64
2023/12/04 00:53:17;;;;;;;1.10;0.90;;;25.80;28.70;;;;;;5074437;28;20094;-65
2023/12/04 00:55:42;;;;;;;1.00;0.77;;;25.80;28.60;;;;;;5073038;28;20052;-67
2023/12/04 00:58:08;;;;;;;1.02;0.70;;;25.80;28.60;;;;;;5072972;28;20041;-66
2023/12/04 01:00:34;;;;;;;1.45;0.70;;;25.80;28.70;;;;;;5074445;28;20045;-64
2023/12/04 01:02:59;;;;;;;1.45;0.63;;;25.80;28.70;;;;;;5074362;28;20040;-66
2023/12/04 01:05:25;;;;;;;0.82;0.45;;;25.70;28.70;;;;;;5072952;28;20055;-68
2023/12/04 01:07:51;;;;;;;1.02;0.82;;;25.80;28.70;;;;;;5072858;28;20047;-66
2023/12/04 01:10:16;;;;;;;1.23;0.65;;;25.80;28.70;;;;;;5073142;28;20079;-64
2023/12/04 01:12:42;;;;;;;1.10;0.68;;;25.80;28.70;;;;;;5073994;28;20423;-67
2023/12/04 01:15:09;;;;;;;1.25;0.90;;;25.90;28.80;;;;;;5074085;28;20494;-68
2023/12/04 01:17:35;;;;;;;1.20;0.70;;;25.90;28.80;;;;;;5072670;28;20040;-67
2023/12/04 01:20:00;;;;;;;1.00;0.70;;;25.90;28.80;;;;;;5072991;28;20067;-64
2023/12/04 01:22:26;;;;;;;1.02;0.70;;;25.90;28.70;;;;;;5073886;28;20496;-67
2023/12/04 01:24:51;;;;;;;0.90;0.75;;;25.90;28.70;;;;;;5072317;28;20060;-67
2023/12/04 01:27:17;;;;;;;0.80;0.70;;;26.00;28.70;;;;;;5073744;28;20036;-67
2023/12/04 01:29:43;;;;;;;1.13;0.70;;;26.00;28.70;;;;;;5072522;28;20040;-67
2023/12/04 01:32:08;;;;;;;1.08;0.82;;;26.00;28.70;;;;;;5072470;28;20041;-67
2023/12/04 01:34:34;;;;;;;1.00;0.88;;;26.00;28.60;;;;;;5073775;28;20498;-67
2023/12/04 01:36:59;;;;;;;1.10;0.55;;;26.00;28.70;;;;;;5072577;28;20044;-67
2023/12/04 01:39:25;;;;;;;1.05;0.60;;;26.00;28.60;;;;;;5072311;28;20075;-66
2023/12/04 01:41:51;;;;;;;0.93;0.50;;;26.00;28.60;;;;;;5072342;28;20040;-66
2023/12/04 01:44:17;;;;;;;1.00;0.65;;;26.00;28.60;;;;;;5072177;28;20050;-67
2023/12/04 01:46:43;;;;;;;0.73;0.50;;;26.00;28.60;;;;;;5072452;28;20087;-67
2023/12/04 01:49:09;;;;;;;0.95;0.60;;;26.00;28.60;;;;;;5072110;28;20076;-65
2023/12/04 01:51:35;;;;;;;0.95;0.60;;;26.10;28.60;;;;;;5073515;28;20037;-67
2023/12/04 01:54:05;;;;;;;1.00;0.50;;;26.10;28.60;;;;;;5072293;28;20050;-66
2023/12/04 01:56:31;;;;;;;1.10;0.60;;;26.10;28.60;;;;;;5073293;28;20045;-65
2023/12/04 01:58:57;;;;;;;1.27;0.88;;;26.10;28.60;;;;;;5073067;28;20041;-64
2023/12/04 02:01:23;;;;;;;1.30;0.95;;;26.10;28.60;;;;;;5072039;28;20040;-67
2023/12/04 02:03:50;;;;;;;0.90;0.68;;;26.10;28.60;;;;;;5073184;28;20093;-67
2023/12/04 02:06:17;;;;;;;1.00;0.75;;;26.20;28.60;;;;;;5073214;28;20501;-67
2023/12/04 02:08:43;;;;;;;0.93;0.65;;;26.20;28.60;;;;;;5071895;28;20123;-67
2023/12/04 02:11:09;;;;;;;0.88;0.60;;;26.10;28.60;;;;;;5071942;28;20048;-67
2023/12/04 02:13:35;;;;;;;1.30;0.70;;;26.10;28.50;;;;;;5072818;28;20052;-67
2023/12/04 02:16:06;;;;;;;1.00;0.60;;;26.20;28.60;;;;;;5071794;28;20052;-67
2023/12/04 02:18:32;;;;;;;;;;;26.20;28.60;;;;;;5073430;28;20036;-66
2023/12/04 02:20:58;;;;;;;0.90;0.65;;;26.20;28.60;;;;;;5071696;28;19923;-67
2023/12/04 02:23:23;;;;;;;1.00;0.60;;;26.20;28.50;;;;;;5072511;28;20041;-66
2023/12/04 02:25:50;;;;;;;1.00;0.82;;;26.20;28.50;;;;;;5071322;28;20408;-67
2023/12/04 02:28:17;;;;;;;0.90;0.50;;;26.30;28.50;;;;;;5072527;28;20044;-67
2023/12/04 02:30:45;;;;;;;0.85;0.60;;;26.30;28.60;;;;;;5071250;28;20115;-64
2023/12/04 02:33:13;;;;;;;0.70;0.50;;;26.30;28.60;;;;;;5071366;28;20072;-67
2023/12/04 02:35:41;;;;;;;1.10;0.60;;;26.20;28.50;;;;;;5071388;28;20115;-67
2023/12/04 02:38:07;;;;;;;1.00;0.70;;;26.30;28.60;;;;;;5071445;28;20068;-67
2023/12/04 02:40:33;;;;;;;0.80;0.40;;;26.30;28.60;;;;;;5071080;28;20455;-67
2023/12/04 02:42:59;;;;;;;1.30;0.90;;;26.30;28.50;;;;;;5072331;28;20115;-67
2023/12/04 02:45:25;;;;;;;1.02;0.68;;;26.30;28.60;;;;;;5071155;28;20476;-65
2023/12/04 02:47:50;;;;;;;0.88;0.68;;;26.30;28.60;;;;;;5071320;28;20044;-67
2023/12/04 02:50:16;;;;;;;0.68;0.52;;;26.30;28.60;;;;;;5070944;28;20543;-67
2023/12/04 02:52:41;;;;;;;0.98;0.60;;;26.30;28.60;;;;;;5070982;28;20063;-67
2023/12/04 02:55:07;;;;;;;0.70;0.40;;;26.30;28.60;;;;;;5070690;28;20044;-67
2023/12/04 02:57:33;;;;;;;0.82;0.68;;;26.30;28.60;;;;;;5072183;28;20372;-66
2023/12/04 02:59:59;;;;;;;1.00;0.57;;;26.30;28.50;;;;;;5071086;28;20048;-67
2023/12/04 03:02:24;;;;;;;0.90;0.57;;;26.30;28.60;;;;;;5072225;28;20039;-65
2023/12/04 03:04:50;;;;;;;0.90;0.57;;;26.40;28.60;;;;;;5070931;28;20511;-67
2023/12/04 03:07:16;;;;;;;0.57;0.45;;;26.40;28.50;;;;;;5070750;28;20498;-67
2023/12/04 03:09:42;;;;;;;0.85;0.50;;;26.50;28.50;;;;;;5072127;28;20115;-65
2023/12/04 03:12:07;;;;;;;0.70;0.50;;;26.60;28.40;;;;;;5070685;28;20040;-66
2023/12/04 03:14:33;;;;;;;0.85;0.60;;;26.80;28.30;;;;;;5071961;28;20036;-67
2023/12/04 03:16:59;;;;;;;0.85;0.57;;;26.90;28.20;;;;;;5071928;28;20041;-68
2023/12/04 03:19:24;;;;;;;0.70;0.60;;;27.10;28.20;;;;;;5070653;28;20040;-65
2023/12/04 03:21:50;;;;;;;0.73;0.40;;;27.20;28.10;;;;;;5070832;28;20040;-65
2023/12/04 03:24:15;;;;;;;1.00;0.40;;;27.30;27.90;;;;;;5071716;28;20080;-67
2023/12/04 03:26:41;;;;;;;0.90;0.65;;;27.50;27.90;;;;;;5071750;28;20476;-64
2023/12/04 03:29:07;;;;;;;0.90;0.68;;;27.60;27.70;;;;;;5071743;28;20090;-64
2023/12/04 03:31:34;;;;;;;1.27;0.70;;;27.70;27.70;;;;;;5071963;28;20119;-67
2023/12/04 03:33:59;;;;;;;0.65;0.43;;;27.80;27.60;;;;;;5070533;28;20041;-67
2023/12/04 03:36:25;;;;;;;0.68;0.50;;;27.90;27.50;;;;;;5053725;28;20040;-67
2023/12/04 03:38:51;;;;;;;0.57;0.32;;;28.00;27.40;;;;;;5070729;28;20120;-67
2023/12/04 03:41:17;;;;;;;0.90;0.50;;;28.10;27.40;;;;;;5071806;28;20029;-67
2023/12/04 03:43:42;;;;;;;0.98;0.60;;;28.10;27.30;;;;;;5070345;28;20056;-67
2023/12/04 03:46:08;;;;;;;0.82;0.40;;;28.20;27.30;;;;;;5070538;28;20660;-67
2023/12/04 03:48:34;;;;;;;1.15;0.63;;;28.30;27.30;;;;;;5070585;28;20437;-64
2023/12/04 03:51:00;;;;;;;0.77;0.40;;;28.30;27.20;;;;;;5070717;28;20103;-67
2023/12/04 03:53:26;;;;;;;0.85;0.40;;;28.40;27.20;;;;;;5070658;28;20037;-64
2023/12/04 03:55:52;;;;;;;0.95;0.55;;;28.50;27.20;;;;;;5070579;28;20048;-65
2023/12/04 03:58:18;;;;;;;1.00;0.50;;;28.50;27.10;;;;;;5071496;28;20488;-67
2023/12/04 04:00:43;;;;;;;0.85;0.30;;;28.60;27.10;;;;;;5070152;28;20047;-66
2023/12/04 04:03:09;;;;;;;0.70;0.43;;;28.60;27.10;;;;;;5070475;28;20044;-67
2023/12/04 04:05:35;;;;;;;0.80;0.52;;;28.70;27.10;;;;;;5071451;28;20124;-64
2023/12/04 04:08:02;;;;;;;1.00;0.57;;;28.70;27.10;;;;;;5073267;28;20511;-67
2023/12/04 04:10:28;;;;;;;0.75;0.40;;;28.70;27.10;;;;;;5075387;28;20086;-67
2023/12/04 04:12:53;;;;;;;0.90;0.47;;;28.80;27.10;;;;;;5057312;28;20032;-64
2023/12/04 04:15:19;;;;;;;1.00;0.60;;;28.80;27.10;;;;;;5075118;28;20036;-65
2023/12/04 04:17:44;;;;;;;0.80;0.40;;;28.80;27.00;;;;;;5075172;28;20527;-67
2023/12/04 04:20:12;;;;;;;0.68;0.50;;;28.80;27.00;;;;;;5074922;28;20442;-67
2023/12/04 04:22:39;;;;;;;0.77;0.47;;;28.80;27.00;;;;;;5075196;28;20041;-67
2023/12/04 04:25:06;;;;;;;0.55;0.40;;;28.90;27.00;;;;;;5073451;28;20063;-67
2023/12/04 04:27:32;;;;;;;0.80;0.50;;;28.90;27.00;;;;;;5074914;28;20048;-67
2023/12/04 04:29:58;;;;;;;0.80;0.50;;;28.90;26.90;;;;;;5073476;28;20166;-67
2023/12/04 04:32:24;;;;;;;0.90;0.50;;;29.00;27.00;;;;;;5073869;28;20040;-67
2023/12/04 04:34:50;;;;;;;0.85;0.40;;;29.00;26.90;;;;;;5073483;28;20060;-66
2023/12/04 04:37:15;;;;;;;0.90;0.40;;;29.00;26.90;;;;;;5075032;28;20089;-64
2023/12/04 04:39:41;;;;;;;0.90;0.50;;;29.00;26.90;;;;;;5073343;28;20044;-67
2023/12/04 04:42:06;;;;;;;0.80;0.50;;;29.00;26.90;;;;;;5073619;28;20093;-67
2023/12/04 04:44:32;;;;;;;0.50;0.30;;;29.10;27.00;;;;;;5074404;28;20125;-67
2023/12/04 04:46:58;;;;;;;0.60;0.50;;;29.10;26.90;;;;;;5073265;28;20044;-67
2023/12/04 04:49:23;;;;;;;1.00;0.60;;;29.10;26.90;;;;;;5073449;28;20033;-67
2023/12/04 04:51:49;;;;;;;0.65;0.43;;;29.10;26.90;;;;;;5073260;28;20043;-67
2023/12/04 04:54:15;;;;;;;0.80;0.50;;;29.10;26.90;;;;;;5074484;28;20086;-67
2023/12/04 04:56:40;;;;;;;0.70;0.50;;;29.10;26.90;;;;;;5073081;28;20048;-67
2023/12/04 04:59:06;;;;;;;0.60;0.38;;;29.20;26.90;;;;;;5074349;28;20028;-67
2023/12/04 05:01:31;;;;;;;0.57;0.30;;;29.20;26.90;;;;;;5073274;28;20047;-67
2023/12/04 05:03:57;;;;;;;0.80;0.60;;;29.20;26.90;;;;;;5074490;28;20089;-67
2023/12/04 05:06:23;;;;;;;1.25;0.50;;;29.20;26.90;;;;;;5074361;28;20514;-67
2023/12/04 05:08:52;;;;;;;0.77;0.50;;;29.30;26.90;;;;;;5073043;28;20474;-67
2023/12/04 05:11:18;;;;;;;0.90;0.40;;;29.30;26.90;;;;;;5074300;28;20399;-67
2023/12/04 05:13:45;;;;;;;0.50;0.30;;;29.30;26.90;;;;;;5072924;28;20144;-67
2023/12/04 05:16:10;;;;;;;0.85;0.38;;;29.30;26.90;;;;;;5073941;28;20046;-65
2023/12/04 05:18:37;;;;;;;0.90;0.50;;;29.30;26.80;;;;;;5072690;28;20455;-67
2023/12/04 05:21:03;;;;;;;0.82;0.50;;;29.30;26.90;;;;;;5072671;28;20527;-68
2023/12/04 05:23:29;;;;;;;0.80;0.50;;;29.30;26.90;;;;;;5072481;28;20040;-67
2023/12/04 05:25:54;;;;;;;0.70;0.50;;;29.30;26.90;;;;;;5072571;28;20098;-65
2023/12/04 05:28:20;;;;;;;0.82;0.40;;;29.30;26.90;;;;;;5072896;28;20384;-64
2023/12/04 05:30:46;;;;;;;0.80;0.47;;;29.40;26.90;;;;;;5072752;28;20135;-67
2023/12/04 05:33:11;;;;;;;0.77;0.40;;;29.40;26.90;;;;;;5072487;28;20041;-66
2023/12/04 05:35:37;;;;;;;0.90;0.60;;;29.40;26.90;;;;;;5072417;28;20040;-66
2023/12/04 05:38:03;;;;;;;0.57;0.30;;;29.40;26.90;;;;;;5072352;28;20052;-65
2023/12/04 05:40:29;;;;;;;0.65;0.38;;;29.40;26.90;;;;;;5072602;28;20037;-67
2023/12/04 05:42:54;;;;;;;0.90;0.38;;;29.40;26.90;;;;;;5072552;28;20140;-67
2023/12/04 05:45:20;;;;;;;0.80;0.50;;;29.40;26.90;;;;;;5072330;28;20062;-67
2023/12/04 05:47:45;;;;;;;0.47;0.30;;;29.40;26.80;;;;;;5072119;28;20047;-67
2023/12/04 05:50:11;;;;;;;0.70;0.40;;;29.50;26.90;;;;;;5072160;28;20149;-67
2023/12/04 05:52:37;;;;;;;0.70;0.45;;;29.50;26.90;;;;;;5072054;28;20044;-64
2023/12/04 05:55:03;;;;;;;0.63;0.40;;;29.40;26.80;;;;;;5072048;28;20052;-67
2023/12/04 05:57:28;;;;;;;0.65;0.35;;;29.50;26.90;;;;;;5073581;28;20033;-65
2023/12/04 05:59:54;;;;;;;0.70;0.40;;;29.40;26.90;;;;;;5071983;28;20032;-67
2023/12/04 06:02:19;;;;;;;0.82;0.43;;;29.50;26.90;;;;;;5073157;28;20037;-65
2023/12/04 06:04:45;;;;;;;0.60;0.38;;;29.50;26.90;;;;;;5071907;28;20396;-67
2023/12/04 06:07:11;;;;;;;0.50;0.30;;;29.50;26.90;;;;;;5073040;28;20037;-67
2023/12/04 06:09:36;;;;;;;0.60;0.40;;;29.50;26.90;;;;;;5071751;28;20037;-64
2023/12/04 06:12:07;;;;;;;0.70;0.30;;;29.50;26.90;;;;;;5071938;28;20545;-65
2023/12/04 06:14:34;;;;;;;0.80;0.40;;;29.50;26.80;;;;;;5072038;28;20052;-67
2023/12/04 06:16:59;;;;;;;0.85;0.57;;;29.60;26.80;;;;;;5072886;28;20075;-65
2023/12/04 06:19:25;;;;;;;0.65;0.30;;;29.60;26.80;;;;;;5071709;28;20519;-67
2023/12/04 06:21:52;;;;;;;0.40;0.30;;;29.60;26.80;;;;;;5071853;28;20390;-67
2023/12/04 06:24:18;;;;;;;0.90;0.60;;;29.60;26.80;;;;;;5072493;28;20053;-67
2023/12/04 06:26:46;;;;;;;0.75;0.50;;;29.60;26.80;;;;;;5072780;28;20051;-67
2023/12/04 06:29:12;;;;;;;0.65;0.40;;;29.60;26.80;;;;;;5070835;28;20064;-65
2023/12/04 06:31:38;;;;;;;2.38;0.73;;;29.60;26.80;;;;;;5071081;28;20048;-65
2023/12/04 06:34:04;;;;;;;2.10;1.48;;;29.60;26.90;;;;;;5071244;28;20048;-65
2023/12/04 06:36:35;;;;;;;1.60;1.40;;;29.00;27.00;;;;;;5070664;28;20040;-66
2023/12/04 06:39:04;;;;;;;3.47;1.10;;;28.10;27.40;;;;;;5072431;28;20459;-64
2023/12/04 06:41:29;;;;;;;3.13;1.65;;;27.50;28.10;;;;;;5054502;28;20040;-65
2023/12/04 06:43:55;;;;;;;2.25;1.88;;;26.90;28.20;;;;;;5069714;28;20044;-66
2023/12/04 06:46:27;;;;;;;2.05;1.77;;;26.20;28.30;;;;;;5069969;28;20123;-67
2023/12/04 06:48:56;;;;;;;2.05;1.65;;;25.50;28.60;;;;;;5069130;28;20044;-66
2023/12/04 06:51:22;;;;;;;2.03;1.80;;;24.90;29.10;;;;;;5068046;28;20074;-66
2023/12/04 06:53:48;;;;;;;3.47;1.98;;;24.40;29.40;;;;;;5064536;28;20068;-67
2023/12/04 06:56:15;;;;;;;6.18;2.67;;;24.00;29.70;;;;;;5064456;28;20443;-67
2023/12/04 06:58:40;;;;;;;2.53;1.90;;;23.70;29.90;;;;;;5068833;28;20040;-67
2023/12/04 07:01:06;;;;;;;4.90;2.45;;;23.40;30.00;;;;;;5070042;28;20115;-67
2023/12/04 07:03:31;;;;;;;2.00;1.60;;;23.30;29.90;;;;;;5065020;28;20120;-64
2023/12/04 07:05:57;;;;;;;1.92;1.58;;;23.20;29.80;;;;;;5063732;28;20043;-68
2023/12/04 07:08:23;;;;;;;2.35;1.95;;;23.10;30.00;;;;;;5057317;28;20044;-65
2023/12/04 07:10:48;;;;;;;2.60;1.10;;;22.90;30.30;;;;;;5063018;28;20029;-69
2023/12/04 07:13:14;;;;;;;2.00;0.98;;;22.90;30.60;;;;;;5061947;28;20131;-70
2023/12/04 07:15:40;;;;;;;1.30;1.00;;;22.80;30.90;;;;;;5065019;28;20131;-65
2023/12/04 07:18:05;;;;;;;2.17;1.05;;;22.70;31.00;;;;;;5062593;28;20558;-68
2023/12/04 07:20:31;;;;;;;1.50;1.00;;;22.60;31.10;;;;;;5058356;28;20582;-69
2023/12/04 07:22:57;;;;;;;2.75;2.40;;;22.50;31.20;;;;;;5062571;28;20093;-68
2023/12/04 07:25:24;;;;;;;1.95;1.40;;;22.40;31.30;;;;;;5064953;28;20052;-68
2023/12/04 07:27:49;;;;;;;2.20;1.58;;;22.20;31.70;;;;;;5066481;28;20048;-70
2023/12/04 07:30:15;;;;;;;3.38;1.45;;;22.10;32.00;;;;;;5063922;28;20048;-70
2023/12/04 07:32:41;;;;;;;2.55;1.60;;;21.90;32.40;;;;;;5059154;28;20171;-69
2023/12/04 07:35:07;;;;;;;1.85;1.52;;;21.70;33.50;;;;;;5037443;28;20670;-70
2023/12/04 07:37:33;;;;;;;1.83;1.27;;;21.60;33.00;;;;;;5052060;28;20107;-69
2023/12/04 07:39:59;;;;;;;4.50;1.52;;;21.50;33.30;;;;;;5053776;28;20494;-69
2023/12/04 07:42:24;;;;;;;1.50;1.05;;;21.40;33.40;;;;;;5060020;28;20677;-69
2023/12/04 07:44:50;;;;;;;1.83;1.00;;;21.30;33.60;;;;;;5057504;28;20032;-65
2023/12/04 07:47:16;;;;;;;2.15;1.35;;;21.30;33.60;;;;;;5065920;28;20090;-68
2023/12/04 07:49:43;;;;;;;4.20;1.30;;;21.20;33.60;;;;;;5054805;28;20075;-69
2023/12/04 07:52:11;;;;;;;2.45;1.20;;;21.20;33.60;;;;;;5056408;28;20052;-67
2023/12/04 07:54:37;;;;;;;1.67;1.48;;;21.10;33.70;;;;;;5057649;28;20049;-68
2023/12/04 07:57:03;;;;;;;1.88;1.30;;;21.10;33.80;;;;;;5063389;28;20537;-69
2023/12/04 07:59:29;;;;;;;2.55;2.22;;;21.00;33.90;;;;;;5081166;28;20496;-65
2023/12/04 08:01:55;;;;;;;2.53;2.00;;;20.90;33.80;;;;;;5051062;28;20171;-68
2023/12/04 08:04:20;;;;;;;2.75;2.03;;;20.80;33.90;;;;;;5053920;28;20435;-68
2023/12/04 08:06:46;;;;;;;2.20;1.60;;;20.70;34.10;;;;;;5052628;28;20054;-68
2023/12/04 08:09:12;;;;;;;4.18;1.83;;;20.60;34.40;;;;;;5053018;28;20040;-69
2023/12/04 08:11:38;;;;;;;2.97;1.88;;;20.50;34.60;;;;;;5055851;28;20047;-67
2023/12/04 08:14:05;;;;;;;2.45;1.67;;;20.40;34.70;;;;;;5056713;28;20476;-69
2023/12/04 08:16:31;;;;;;;3.53;1.73;;;20.40;35.50;;;;;;5057074;28;20044;-68
2023/12/04 08:18:57;;;;;;;4.13;3.03;;;20.40;34.90;;;;;;5059683;28;20430;-66
2023/12/04 08:21:22;;;;;;;2.80;2.17;;;20.30;34.50;;;;;;5053794;28;20468;-70
2023/12/04 08:23:48;;;;;;;4.97;2.10;;;20.20;34.10;;;;;;5054394;28;20583;-68
2023/12/04 08:26:20;;;;;;;4.55;2.60;;;20.20;34.00;;;;;;5049952;28;20045;-73
2023/12/04 08:28:46;;;;;;;3.85;2.05;;;20.10;34.10;;;;;;5050573;28;20476;-67
2023/12/04 08:31:11;;;;;;;3.33;1.88;;;20.20;34.30;;;;;;5083769;28;21153;-68
2023/12/04 08:33:37;;;;;;;2.80;2.00;;;20.20;34.20;;;;;;5050980;28;20044;-68
2023/12/04 08:36:03;;;;;;;2.80;1.50;;;20.30;34.20;;;;;;5050987;28;20048;-71
2023/12/04 08:38:28;;;;;;;2.88;1.52;;;20.30;34.00;;;;;;5056689;28;20570;-69
2023/12/04 08:40:54;;;;;;;2.65;1.63;;;20.30;33.90;;;;;;5052433;28;20178;-71
2023/12/04 08:43:20;;;;;;;2.58;1.60;;;20.40;34.00;;;;;;5053203;28;20116;-68
2023/12/04 08:45:49;;;;;;;3.00;1.48;;;20.40;34.10;;;;;;5055489;28;20540;-68
2023/12/04 08:48:15;;;;;;;2.63;1.45;;;20.40;34.10;;;;;;5049883;28;20040;-72
2023/12/04 08:50:40;;;;;;;1.73;1.30;;;20.30;34.10;;;;;;5049112;28;20048;-68
2023/12/04 08:53:06;;;;;;;3.17;1.50;;;20.20;34.20;;;;;;5052423;28;20033;-70
2023/12/04 08:55:32;;;;;;;3.40;1.60;;;20.20;34.20;;;;;;5053292;28;20166;-70
2023/12/04 08:57:57;;;;;;;1.70;1.08;;;20.20;34.20;;;;;;5052928;28;20101;-69
2023/12/04 09:00:23;;;;;;;1.92;1.25;;;20.10;34.30;;;;;;5053314;28;21245;-67
2023/12/04 09:02:48;;;;;;;4.63;1.80;;;20.10;34.40;;;;;;5053466;28;20043;-68
2023/12/04 09:05:14;;;;;;;2.95;1.50;;;20.10;34.70;;;;;;5056252;28;20040;-69
2023/12/04 09:07:40;;;;;;;3.65;1.50;;;20.00;35.10;;;;;;5056554;28;20029;-67
2023/12/04 09:10:06;;;;;;;2.30;1.70;;;19.90;35.50;;;;;;5056377;28;20045;-70
2023/12/04 09:12:32;;;;;;;3.03;1.40;;;19.80;35.70;;;;;;5061665;28;20067;-67
2023/12/04 09:14:58;;;;;;;3.20;1.30;;;19.70;35.90;;;;;;5059120;28;20446;-69
2023/12/04 09:17:23;;;;;;;4.68;1.25;;;19.70;35.90;;;;;;5062977;28;20037;-71
2023/12/04 09:19:49;;;;;;;2.75;1.33;;;19.60;35.90;;;;;;5057758;28;20044;-69
2023/12/04 09:22:14;;;;;;;2.53;1.23;;;19.70;36.00;;;;;;5057168;28;20061;-67
2023/12/04 09:24:40;;;;;;;6.03;1.65;;;19.80;36.00;;;;;;5049666;28;20054;-66
2023/12/04 09:27:07;;;;;;;2.88;1.48;;;19.90;36.00;;;;;;5050167;28;20123;-67
2023/12/04 09:29:33;;;;;;;5.95;1.85;;;20.00;36.10;;;;;;5084958;28;20040;-67
2023/12/04 09:31:59;;;;;;;3.15;1.65;;;20.20;35.80;;;;;;5057036;28;20045;-67
2023/12/04 09:34:25;;;;;;;2.28;1.10;;;20.20;35.70;;;;;;5049420;28;20048;-67
2023/12/04 09:36:50;;;;;;;3.35;1.20;;;20.20;35.70;;;;;;5054694;28;20044;-68
2023/12/04 09:39:16;;;;;;;6.45;1.60;;;20.20;35.70;;;;;;5053954;28;20063;-69
2023/12/04 09:41:44;;;;;;;3.10;1.00;;;20.20;35.60;;;;;;5054227;28;20032;-68
2023/12/04 09:44:09;;;;;;;4.25;1.70;;;20.10;35.50;;;;;;5056664;28;20044;-68
2023/12/04 09:46:35;;;;;;;3.75;1.77;;;20.10;35.50;;;;;;5058248;28;20047;-68
2023/12/04 09:49:04;;;;;;;3.33;1.40;;;20.10;35.20;;;;;;5051343;28;20377;-66
2023/12/04 09:51:30;;;;;;;3.88;1.75;;;20.10;34.80;;;;;;5051721;28;20055;-64
2023/12/04 09:53:58;;;;;;;5.15;1.60;;;20.10;34.90;;;;;;5065116;28;20041;-68
2023/12/04 09:56:25;;;;;;;2.47;1.40;;;20.00;34.80;;;;;;5049179;28;20139;-65
2023/12/04 09:58:56;;;;;;;5.80;1.00;;;20.00;34.90;;;;;;5055053;28;20047;-66
2023/12/04 10:01:22;;;;;;;3.45;1.20;;;20.00;34.90;;;;;;5054913;28;20532;-69
2023/12/04 10:03:48;;;;;;;4.75;0.90;;;20.00;35.10;;;;;;5052801;28;20090;-68
2023/12/04 10:06:17;;;;;;;1.98;0.85;;;20.00;35.20;;;;;;5052997;28;20079;-65
2023/12/04 10:08:44;;;;;;;2.90;1.10;;;19.90;35.30;;;;;;5050662;28;20052;-69
2023/12/04 10:11:10;;;;;;;1.90;0.93;;;19.90;35.30;;;;;;5052148;28;20040;-66
2023/12/04 10:13:36;;;;;;;2.65;0.73;;;19.80;35.20;;;;;;5046763;28;20088;-69
2023/12/04 10:16:02;;;;;;;1.95;0.77;;;19.80;35.20;;;;;;5047911;28;20341;-67
2023/12/04 10:18:30;;;;;;;7.10;1.90;;;19.80;35.30;;;;;;5047104;28;20048;-66
2023/12/04 10:20:56;;;;;;;3.97;1.13;;;19.70;35.60;;;;;;5051025;28;20044;-71
2023/12/04 10:23:22;;;;;;;3.90;1.10;;;19.70;35.70;;;;;;5049647;28;20037;-66
2023/12/04 10:25:50;;;;;;;2.78;1.10;;;19.70;35.80;;;;;;5050933;28;20061;-65
2023/12/04 10:28:17;;;;;;;2.95;0.68;;;19.70;36.10;;;;;;5051970;28;20041;-65
2023/12/04 10:30:43;;;;;;;5.80;1.02;;;19.80;36.20;;;;;;5052333;28;20373;-66
2023/12/04 10:33:10;;;;;;;4.72;1.20;;;19.80;36.20;;;;;;5051837;28;20075;-66
2023/12/04 10:35:36;;;;;;;3.25;0.85;;;19.80;36.30;;;;;;5054310;28;20392;-67
2023/12/04 10:38:03;;;;;;;1.80;1.35;;;19.80;36.00;;;;;;5054917;28;20483;-66
2023/12/04 10:40:31;;;;;;;2.65;1.10;;;19.70;35.20;;;;;;5054251;28;20060;-67
2023/12/04 10:43:18;;;;;;;3.38;0.98;;;19.70;35.10;;;;;;5052198;28;20040;-67
2023/12/04 10:45:45;;;;;;;3.60;1.00;;;19.80;35.30;;;;;;5051549;28;20839;-67
2023/12/04 10:48:12;;;;;;;3.15;0.98;;;19.80;35.20;;;;;;5051008;28;20423;-66
2023/12/04 10:50:41;;;;;;;3.55;1.40;;;19.90;35.30;;;;;;5060748;28;20320;-68
2023/12/04 10:53:09;;;;;;;2.03;1.30;;;20.00;34.80;;;;;;5055043;28;20029;-70
2023/12/04 10:55:36;;;;;;;8.35;1.85;;;20.00;34.30;;;;;;5088477;28;20055;-69
2023/12/04 10:58:05;;;;;;;4.32;1.33;;;20.00;34.10;;;;;;5084946;28;20052;-66
2023/12/04 11:00:34;;;;;;;1.70;1.25;;;20.10;34.00;;;;;;5048696;28;20044;-69
2023/12/04 11:03:08;;;;;;;1.95;1.00;;;20.10;34.00;;;;;;5051076;28;20087;-70
2023/12/04 11:05:38;;;;;;;4.13;1.23;;;20.10;33.80;;;;;;5069112;28;20121;-70
2023/12/04 11:08:06;;;;;;;6.65;1.50;;;20.20;33.80;;;;;;5068497;28;20036;-66
2023/12/04 11:10:36;;;;;;;3.22;1.30;;;20.20;33.70;;;;;;5055280;28;20036;-67
2023/12/04 11:13:07;;;;;;;3.22;1.30;;;20.20;33.60;;;;;;5051739;28;20037;-68
2023/12/04 11:15:40;;;;;;;1.90;1.25;;;20.20;33.50;;;;;;5051728;28;20048;-69
2023/12/04 11:18:08;;;;;;;3.83;1.20;;;20.30;33.20;;;;;;5056752;28;20036;-68
2023/12/04 11:20:46;;;;;;;3.30;1.10;;;20.30;33.10;;;;;;5057716;28;20040;-69
2023/12/04 11:23:15;;;;;;;3.50;1.88;;;20.30;33.30;;;;;;5054473;28;20041;-70
2023/12/04 11:25:42;;;;;;;1.60;1.20;;;20.30;33.20;;;;;;5082011;28;20094;-69
2023/12/04 11:28:10;;;;;;;3.35;1.38;;;20.30;33.20;;;;;;5052051;28;20421;-68
2023/12/04 11:30:36;;;;;;;2.85;1.20;;;20.30;33.20;;;;;;5055605;28;20410;-67
2023/12/04 11:33:04;;;;;;;2.78;1.08;;;20.30;33.00;;;;;;5050670;28;20377;-71
2023/12/04 11:35:30;;;;;;;1.98;1.17;;;20.30;32.90;;;;;;5056419;28;20366;-68
2023/12/04 11:37:56;;;;;;;1.55;1.08;;;20.30;32.80;;;;;;5050725;28;20090;-67
2023/12/04 11:40:22;;;;;;;1.63;0.73;;;20.30;33.00;;;;;;5052352;28;20102;-67
2023/12/04 11:42:48;;;;;;;1.90;1.20;;;20.30;33.10;;;;;;5052062;28;20068;-68
2023/12/04 11:45:21;;;;;;;5.25;1.08;;;20.40;33.30;;;;;;5055821;28;20075;-68
2023/12/04 11:48:02;;;;;;;2.65;1.67;;;20.30;33.20;;;;;;5054621;28;20334;-68
2023/12/04 11:50:27;;;;;;;;;;;20.30;33.30;;;;;;5058915;28;20067;-69
2023/12/04 11:52:54;;;;;;;2.95;1.27;;;20.30;33.90;;;;;;5047643;28;20023;-68
2023/12/04 11:55:22;;;;;;;5.78;1.30;;;20.30;33.10;;;;;;5063897;28;20044;-67
2023/12/04 11:57:50;;;;;;;2.33;1.05;;;20.30;33.00;;;;;;5082861;28;20460;-68
2023/12/04 12:05:38;;;;;;;3.65;0.93;;;20.30;32.90;;;;;;5057550;28;20479;-67
2023/12/04 12:08:05;;;;;;;4.40;1.08;;;20.30;32.80;;;;;;5080811;28;20040;-67
2023/12/04 12:10:32;;;;;;;2.85;0.90;;;20.30;32.90;;;;;;5051616;28;20519;-67
2023/12/04 12:12:58;;;;;;;1.77;0.90;;;20.30;32.80;;;;;;5050197;28;20190;-66
2023/12/04 12:15:24;;;;;;;2.45;0.95;;;20.30;33.60;;;;;;5042991;28;20097;-66
2023/12/04 12:17:51;;;;;;;1.27;0.63;;;20.30;32.90;;;;;;5048762;28;20128;-67
2023/12/04 12:20:18;;;;;;;2.58;0.80;;;20.50;32.70;;;;;;5048041;28;20481;-67
2023/12/04 12:22:44;;;;;;;1.33;0.70;;;20.90;32.40;;;;;;5051881;28;20058;-70
2023/12/04 12:25:11;;;;;;;2.58;1.20;;;21.50;31.90;;;;;;5053047;28;20049;-70
2023/12/04 12:27:37;;;;;;;1.48;0.80;;;22.20;30.60;;;;;;5052852;28;20052;-69
2023/12/04 12:30:04;;;;;;;1.45;0.98;;;22.80;29.70;;;;;;5055379;28;20069;-68
2023/12/04 12:32:31;;;;;;;3.25;1.10;;;23.20;29.10;;;;;;5087143;28;20040;-67
2023/12/04 12:34:57;;;;;;;1.33;0.90;;;23.40;28.60;;;;;;5052765;28;20402;-67
2023/12/04 12:37:22;;;;;;;1.65;0.68;;;23.60;28.40;;;;;;5052222;28;20041;-66
2023/12/04 12:39:48;;;;;;;1.30;0.90;;;23.70;28.50;;;;;;5054488;28;20366;-67
2023/12/04 12:42:22;;;;;;;1.40;1.08;;;23.80;28.10;;;;;;5055515;28;20036;-67
2023/12/04 12:44:48;;;;;;;1.75;0.90;;;23.70;28.30;;;;;;5054991;28;20105;-66
2023/12/04 12:47:15;;;;;;;2.20;1.10;;;23.80;28.40;;;;;;5052915;28;20504;-67
2023/12/04 12:49:41;;;;;;;4.03;1.05;;;23.80;28.10;;;;;;5054915;28;20040;-67